Terminal Aerodrome Forecast
Issued by NWS Omaha/Valley, NE

Home | Current Version | Previous Version | Text Only | Print | Product List | Glossary Off
Versions: 1 2 3 4 5 6 7 8 9 10 11 12 13 14 15

000
FTUS43 KOAX 241502 AAA
TAFOFK
TAF AMD
KOFK 241502Z 2415/2512 35018G27KT 1SM -SN BLSN OVC025
     FM241700 34020G28KT 3SM BLSN OVC025
     FM242200 34018G26KT P6SM OVC060
     FM250200 33010KT P6SM SCT250=

USA.gov is the U.S. government's official web portal to all federal, state and local government web resources and services.